Time,TemperatureF,DewpointF,PressureIn,WindDirection,WindDirectionDegrees,WindSpeedMPH,WindSpeedGustMPH,Humidity,HourlyPrecipIn,Conditions,Clouds,dailyrainin,SolarRadiationWatts/m^2,SoftwareType,DateUTC
2013-10-11 00:03:00,53.0,52.0,-100.00,SE,129,3.0,5.0,98,0.00,,,0.00,0.000000,,2013-10-11 05:03:00,
2013-10-11 00:12:00,53.0,52.0,-100.00,SE,145,1.0,6.0,98,0.00,,,0.00,0.000000,,2013-10-11 05:12:00,
2013-10-11 00:43:00,53.0,52.0,-100.00,SE,145,1.0,6.0,98,0.00,,,0.00,0.000000,,2013-10-11 05:43:00,
2013-10-11 00:52:00,53.0,52.0,-100.00,SE,145,1.0,6.0,98,0.00,,,0.00,0.000000,,2013-10-11 05:52:00,
2013-10-11 01:02:00,53.0,52.0,-100.00,SE,145,1.0,6.0,98,0.00,,,0.00,0.000000,,2013-10-11 06:02:00,
2013-10-11 01:43:00,53.0,52.0,-100.00,SSE,151,2.0,5.0,98,0.00,,,0.00,0.000000,,2013-10-11 06:43:00,
2013-10-11 01:52:00,53.0,52.0,-100.00,SSE,151,2.0,5.0,98,0.00,,,0.00,0.000000,,2013-10-11 06:52:00,
2013-10-11 02:02:00,53.0,52.0,-100.00,SSE,151,2.0,5.0,98,0.00,,,0.00,0.000000,,2013-10-11 07:02:00,
2013-10-11 02:11:00,53.0,52.0,-100.00,SSE,151,2.0,5.0,98,0.00,,,0.00,0.000000,,2013-10-11 07:11:00,
2013-10-11 04:12:00,52.0,51.0,-100.00,East,86,0.0,3.0,98,0.00,,,0.00,0.000000,,2013-10-11 09:12:00,
2013-10-11 04:43:00,52.0,51.0,-100.00,East,86,0.0,3.0,98,0.00,,,0.00,0.000000,,2013-10-11 09:43:00,
2013-10-11 04:54:00,52.0,51.0,-100.00,East,86,0.0,3.0,98,0.00,,,0.00,0.000000,,2013-10-11 09:54:00,
2013-10-11 05:03:00,52.0,51.0,-100.00,East,86,0.0,3.0,98,0.00,,,0.00,0.000000,,2013-10-11 10:03:00,
2013-10-11 05:12:00,50.0,49.0,-100.00,East,89,0.0,2.0,98,0.00,,,0.00,0.000000,,2013-10-11 10:12:00,
2013-10-11 05:43:00,50.0,49.0,-100.00,East,89,0.0,2.0,98,0.00,,,0.00,0.000000,,2013-10-11 10:43:00,
2013-10-11 05:53:00,50.0,49.0,-100.00,East,89,0.0,2.0,98,0.00,,,0.00,0.000000,,2013-10-11 10:53:00,
2013-10-11 06:02:00,50.0,49.0,-100.00,East,89,0.0,2.0,98,0.00,,,0.00,0.000000,,2013-10-11 11:02:00,
2013-10-11 06:42:00,47.0,46.0,-100.00,NE,43,0.0,0.0,98,0.00,,,-99.99,0.000000,,2013-10-11 11:42:00,
2013-10-11 06:52:00,47.0,46.0,-100.00,NE,43,0.0,0.0,98,0.00,,,-99.99,0.000000,,2013-10-11 11:52:00,
2013-10-11 07:02:00,47.0,46.0,-100.00,NE,43,0.0,0.0,98,0.00,,,-99.99,0.000000,,2013-10-11 12:02:00,
2013-10-11 07:11:00,47.0,46.0,-100.00,NE,43,0.0,0.0,98,0.00,,,-99.99,0.000000,,2013-10-11 12:11:00,
2013-10-11 07:12:00,46.0,45.0,-100.00,NE,54,0.0,4.0,98,0.01,,,-99.99,6.000000,,2013-10-11 12:12:00,
2013-10-11 07:42:00,46.0,45.0,-100.00,NE,54,0.0,4.0,98,0.01,,,-99.99,6.000000,,2013-10-11 12:42:00,
2013-10-11 07:52:00,46.0,45.0,-100.00,NE,54,0.0,4.0,98,0.01,,,-99.99,6.000000,,2013-10-11 12:52:00,
2013-10-11 08:02:00,46.0,45.0,-100.00,NE,54,0.0,4.0,98,0.01,,,-99.99,6.000000,,2013-10-11 13:02:00,
2013-10-11 08:43:00,48.0,47.0,-100.00,ENE,69,2.0,3.0,98,0.00,,,-99.99,66.000000,,2013-10-11 13:43:00,
2013-10-11 08:53:00,48.0,47.0,-100.00,ENE,69,2.0,3.0,98,0.00,,,-99.99,66.000000,,2013-10-11 13:53:00,
2013-10-11 09:02:00,48.0,47.0,-100.00,ENE,69,2.0,3.0,98,0.00,,,-99.99,66.000000,,2013-10-11 14:02:00,
2013-10-11 09:11:00,48.0,47.0,-100.00,ENE,69,2.0,3.0,98,0.00,,,-99.99,66.000000,,2013-10-11 14:11:00,
2013-10-11 09:42:00,51.0,50.0,-100.00,ESE,107,3.0,7.0,98,0.00,,,-99.99,164.000000,,2013-10-11 14:42:00,
2013-10-11 09:52:00,51.0,50.0,-100.00,ESE,107,3.0,7.0,98,0.00,,,-99.99,164.000000,,2013-10-11 14:52:00,
2013-10-11 10:02:00,51.0,50.0,-100.00,ESE,107,3.0,7.0,98,0.00,,,-99.99,164.000000,,2013-10-11 15:02:00,
2013-10-11 10:11:00,51.0,50.0,-100.00,ESE,107,3.0,7.0,98,0.00,,,-99.99,164.000000,,2013-10-11 15:11:00,
2013-10-11 10:12:00,56.0,55.0,-100.00,SE,125,4.0,6.0,97,0.00,,,0.01,282.000000,,2013-10-11 15:12:00,
2013-10-11 10:44:00,56.0,55.0,-100.00,SE,125,4.0,6.0,97,0.00,,,0.01,282.000000,,2013-10-11 15:44:00,
2013-10-11 10:54:00,56.0,55.0,-100.00,SE,125,4.0,6.0,97,0.00,,,0.01,282.000000,,2013-10-11 15:54:00,
2013-10-11 11:04:00,56.0,55.0,-100.00,SE,125,4.0,6.0,97,0.00,,,0.01,282.000000,,2013-10-11 16:04:00,
2013-10-11 11:12:00,62.0,56.0,-100.00,SE,134,5.0,7.0,80,0.00,,,0.01,409.000000,,2013-10-11 16:12:00,
2013-10-11 11:43:00,62.0,56.0,-100.00,SE,134,5.0,7.0,80,0.00,,,0.01,409.000000,,2013-10-11 16:43:00,
2013-10-11 11:53:00,62.0,56.0,-100.00,SE,134,5.0,7.0,80,0.00,,,0.01,409.000000,,2013-10-11 16:53:00,
2013-10-11 12:03:00,62.0,56.0,-100.00,SE,134,5.0,7.0,80,0.00,,,0.01,409.000000,,2013-10-11 17:03:00,
2013-10-11 12:12:00,66.0,55.0,-100.00,SE,135,5.0,9.0,67,0.00,,,0.01,542.000000,,2013-10-11 17:12:00,
2013-10-11 12:43:00,66.0,55.0,-100.00,SE,135,5.0,9.0,67,0.00,,,0.01,542.000000,,2013-10-11 17:43:00,
2013-10-11 12:53:00,66.0,55.0,-100.00,SE,135,5.0,9.0,67,0.00,,,0.01,542.000000,,2013-10-11 17:53:00,
2013-10-11 13:02:00,66.0,55.0,-100.00,SE,135,5.0,9.0,67,0.00,,,0.01,542.000000,,2013-10-11 18:02:00,
2013-10-11 13:43:00,69.0,54.0,-100.00,SE,144,5.0,11.0,58,0.00,,,0.01,522.000000,,2013-10-11 18:43:00,
2013-10-11 13:53:00,69.0,54.0,-100.00,SE,144,5.0,11.0,58,0.00,,,0.01,522.000000,,2013-10-11 18:53:00,
2013-10-11 14:02:00,69.0,54.0,-100.00,SE,144,5.0,11.0,58,0.00,,,0.01,522.000000,,2013-10-11 19:02:00,
2013-10-11 14:11:00,69.0,54.0,-100.00,SE,144,5.0,11.0,58,0.00,,,0.01,522.000000,,2013-10-11 19:11:00,
2013-10-11 14:12:00,67.0,52.0,-100.00,SE,133,6.0,12.0,59,0.00,,,0.01,465.000000,,2013-10-11 19:12:00,
2013-10-11 14:43:00,67.0,52.0,-100.00,SE,133,6.0,12.0,59,0.00,,,0.01,465.000000,,2013-10-11 19:43:00,
2013-10-11 14:52:00,67.0,52.0,-100.00,SE,133,6.0,12.0,59,0.00,,,0.01,465.000000,,2013-10-11 19:52:00,
2013-10-11 15:02:00,67.0,52.0,-100.00,SE,133,6.0,12.0,59,0.00,,,0.01,465.000000,,2013-10-11 20:02:00,
2013-10-11 15:12:00,69.0,52.0,-100.00,SE,132,6.0,15.0,55,0.00,,,0.01,528.000000,,2013-10-11 20:12:00,
2013-10-11 15:43:00,69.0,52.0,-100.00,SE,132,6.0,15.0,55,0.00,,,0.01,528.000000,,2013-10-11 20:43:00,
2013-10-11 15:53:00,69.0,52.0,-100.00,SE,132,6.0,15.0,55,0.00,,,0.01,528.000000,,2013-10-11 20:53:00,
2013-10-11 16:02:00,69.0,52.0,-100.00,SE,132,6.0,15.0,55,0.00,,,0.01,528.000000,,2013-10-11 21:02:00,
2013-10-11 16:12:00,66.0,52.0,-100.00,SE,142,8.0,17.0,60,0.00,,,0.01,396.000000,,2013-10-11 21:12:00,
2013-10-11 16:43:00,66.0,52.0,-100.00,SE,142,8.0,17.0,60,0.00,,,0.01,396.000000,,2013-10-11 21:43:00,
2013-10-11 16:55:00,66.0,52.0,-100.00,SE,142,8.0,17.0,60,0.00,,,0.01,396.000000,,2013-10-11 21:55:00,
2013-10-11 17:04:00,66.0,52.0,-100.00,SE,142,8.0,17.0,60,0.00,,,0.01,396.000000,,2013-10-11 22:04:00,
2013-10-11 17:12:00,64.0,51.0,-100.00,SSE,159,6.0,13.0,63,0.00,,,0.01,220.000000,,2013-10-11 22:12:00,
2013-10-11 17:43:00,64.0,51.0,-100.00,SSE,159,6.0,13.0,63,0.00,,,0.01,220.000000,,2013-10-11 22:43:00,
2013-10-11 17:54:00,64.0,51.0,-100.00,SSE,159,6.0,13.0,63,0.00,,,0.01,220.000000,,2013-10-11 22:54:00,
2013-10-11 18:03:00,64.0,51.0,-100.00,SSE,159,6.0,13.0,63,0.00,,,0.01,220.000000,,2013-10-11 23:03:00,
2013-10-11 18:12:00,59.0,48.0,-100.00,SSE,149,4.0,11.0,66,0.00,,,0.01,45.000000,,2013-10-11 23:12:00,
2013-10-11 18:42:00,59.0,48.0,-100.00,SSE,149,4.0,11.0,66,0.00,,,0.01,45.000000,,2013-10-11 23:42:00,
2013-10-11 18:53:00,59.0,48.0,-100.00,SSE,149,4.0,11.0,66,0.00,,,0.01,45.000000,,2013-10-11 23:53:00,
2013-10-11 19:02:00,59.0,48.0,-100.00,SSE,149,4.0,11.0,66,0.00,,,0.01,45.000000,,2013-10-12 00:02:00,
2013-10-11 19:42:00,56.0,49.0,-100.00,SE,131,3.0,8.0,78,0.00,,,0.01,0.000000,,2013-10-12 00:42:00,
2013-10-11 19:53:00,56.0,49.0,-100.00,SE,131,3.0,8.0,78,0.00,,,0.01,0.000000,,2013-10-12 00:53:00,
2013-10-11 20:02:00,56.0,49.0,-100.00,SE,131,3.0,8.0,78,0.00,,,0.01,0.000000,,2013-10-12 01:02:00,
2013-10-11 20:11:00,56.0,49.0,-100.00,SE,131,3.0,8.0,78,0.00,,,0.01,0.000000,,2013-10-12 01:11:00,
2013-10-11 20:12:00,53.0,50.0,-100.00,ESE,102,3.0,6.0,89,0.00,,,0.01,0.000000,,2013-10-12 01:12:00,
2013-10-11 20:42:00,53.0,50.0,-100.00,ESE,102,3.0,6.0,89,0.00,,,0.01,0.000000,,2013-10-12 01:42:00,
2013-10-11 20:52:00,53.0,50.0,-100.00,ESE,102,3.0,6.0,89,0.00,,,0.01,0.000000,,2013-10-12 01:52:00,
2013-10-11 21:02:00,53.0,50.0,-100.00,ESE,102,3.0,6.0,89,0.00,,,0.01,0.000000,,2013-10-12 02:02:00,
2013-10-11 21:12:00,51.0,49.0,-100.00,SE,131,2.0,5.0,93,0.00,,,0.01,0.000000,,2013-10-12 02:12:00,
2013-10-11 21:42:00,51.0,49.0,-100.00,SE,131,2.0,5.0,93,0.00,,,0.01,0.000000,,2013-10-12 02:42:00,
2013-10-11 21:52:00,51.0,49.0,-100.00,SE,131,2.0,5.0,93,0.00,,,0.01,0.000000,,2013-10-12 02:52:00,
2013-10-11 22:02:00,51.0,49.0,-100.00,SE,131,2.0,5.0,93,0.00,,,0.01,0.000000,,2013-10-12 03:02:00,
2013-10-11 22:12:00,49.0,48.0,-100.00,SE,131,1.0,4.0,95,0.00,,,0.01,0.000000,,2013-10-12 03:12:00,
2013-10-11 22:44:00,49.0,48.0,-100.00,SE,131,1.0,4.0,95,0.00,,,0.01,0.000000,,2013-10-12 03:44:00,
2013-10-11 22:54:00,49.0,48.0,-100.00,SE,131,1.0,4.0,95,0.00,,,0.01,0.000000,,2013-10-12 03:54:00,
2013-10-11 23:04:00,49.0,48.0,-100.00,SE,131,1.0,4.0,95,0.00,,,0.01,0.000000,,2013-10-12 04:04:00,
2013-10-11 23:12:00,47.0,46.0,-100.00,SE,133,1.0,4.0,96,0.00,,,0.01,0.000000,,2013-10-12 04:12:00,
2013-10-11 23:44:00,47.0,46.0,-100.00,SE,133,1.0,4.0,96,0.00,,,0.01,0.000000,,2013-10-12 04:44:00,
2013-10-11 23:54:00,47.0,46.0,-100.00,SE,133,1.0,4.0,96,0.00,,,0.01,0.000000,,2013-10-12 04:54:00,